Аэропорт: Большое Савино. Пермь

ICAO: USPP

METAR:
2018/07/22 20:00
USPP 222000Z 22002MPS 9000 NSC 13/09 Q1021 R03/090060 TEMPO 1100 BR FU RMK QFE755
METAR:
2018/07/22 18:37
TAF USPP 221659Z 2218/2318 09003G10MPS CAVOK